createdAt,value
2019-05-06T00:01:53.982Z,83.27
2019-05-06T00:04:24.712Z,83.63
2019-05-06T00:06:54.890Z,83.70
2019-05-06T00:09:24.100Z,83.79
2019-05-06T00:11:54.274Z,84.26
2019-05-06T00:14:23.686Z,84.56
2019-05-06T00:16:54.548Z,84.27
2019-05-06T00:19:24.682Z,84.27
2019-05-06T00:21:54.161Z,84.08
2019-05-06T00:24:25.040Z,84.01
2019-05-06T00:26:57.658Z,83.99
2019-05-06T00:29:27.513Z,83.90
2019-05-06T00:31:56.279Z,83.64
2019-05-06T00:34:25.011Z,83.78
2019-05-06T00:36:54.484Z,83.77
2019-05-06T00:39:27.903Z,83.66
2019-05-06T00:42:01.238Z,83.62
2019-05-06T00:44:29.975Z,83.33
2019-05-06T00:46:58.741Z,83.46
2019-05-06T00:49:27.472Z,83.17
2019-05-06T00:51:56.247Z,83.24
2019-05-06T00:54:27.296Z,83.12
2019-05-06T00:56:56.896Z,83.24
2019-05-06T00:59:26.369Z,83.51
2019-05-06T01:01:55.933Z,83.55
2019-05-06T01:04:25.395Z,83.61
2019-05-06T01:06:56.507Z,83.62
2019-05-06T01:09:25.774Z,83.44
2019-05-06T01:11:56.681Z,83.47
2019-05-06T01:14:32.831Z,83.67
2019-05-06T01:17:01.572Z,83.37
2019-05-06T01:19:30.336Z,83.22
2019-05-06T01:21:59.073Z,83.15
2019-05-06T01:24:27.940Z,82.87
2019-05-06T01:26:56.669Z,82.94
2019-05-06T01:29:25.695Z,82.64
2019-05-06T01:31:54.611Z,82.40
2019-05-06T01:34:24.529Z,82.32
2019-05-06T01:36:54.543Z,82.21
2019-05-06T01:39:34.275Z,82.24
2019-05-06T01:42:24.628Z,82.38
2019-05-06T01:44:53.894Z,82.51
2019-05-06T01:47:23.742Z,82.43
2019-05-06T01:49:53.731Z,82.53
2019-05-06T01:52:24.064Z,82.87
2019-05-06T01:54:54.252Z,83.11
2019-05-06T01:57:24.444Z,83.42
2019-05-06T01:59:54.014Z,83.44
2019-05-06T02:02:23.944Z,83.88
2019-05-06T02:04:54.040Z,84.18
2019-05-06T02:07:24.189Z,83.95
2019-05-06T02:09:54.293Z,84.21
2019-05-06T02:12:24.591Z,84.05
2019-05-06T02:14:54.348Z,84.12
2019-05-06T02:17:23.934Z,84.12
2019-05-06T02:19:54.625Z,84.28
2019-05-06T02:22:25.013Z,84.07
2019-05-06T02:25:04.584Z,84.28
2019-05-06T02:27:34.082Z,84.81
2019-05-06T02:30:10.802Z,84.25
2019-05-06T02:32:55.643Z,84.38
2019-05-06T02:35:26.407Z,84.84
2019-05-06T02:37:55.569Z,84.99
2019-05-06T02:40:29.249Z,85.26
2019-05-06T02:42:58.062Z,85.43
2019-05-06T02:45:26.853Z,84.80
2019-05-06T02:47:57.165Z,84.85
2019-05-06T02:50:45.670Z,84.75
2019-05-06T02:53:16.072Z,85.06
2019-05-06T02:55:44.814Z,85.05
2019-05-06T02:58:14.818Z,84.89
2019-05-06T03:00:44.281Z,85.05
2019-05-06T03:03:14.077Z,84.97
2019-05-06T03:05:43.886Z,84.80
2019-05-06T03:08:13.605Z,84.72
2019-05-06T03:10:44.097Z,85.05
2019-05-06T03:13:14.147Z,84.88
2019-05-06T03:15:43.771Z,84.84
2019-05-06T03:18:14.672Z,85.20
2019-05-06T03:20:53.319Z,84.99
2019-05-06T03:23:39.997Z,85.13
2019-05-06T03:26:08.870Z,85.24
2019-05-06T03:28:37.615Z,85.03
2019-05-06T03:31:07.726Z,85.32
2019-05-06T03:33:55.302Z,85.39
2019-05-06T03:36:18.809Z,85.36
2019-05-06T03:38:38.033Z,84.99
2019-05-06T03:41:06.827Z,84.66
2019-05-06T03:43:35.564Z,84.62
2019-05-06T03:46:09.246Z,84.27
2019-05-06T03:48:39.583Z,84.52
2019-05-06T03:51:08.341Z,84.75
2019-05-06T03:53:37.128Z,84.56
2019-05-06T03:56:05.969Z,84.32
2019-05-06T03:58:37.250Z,84.19
2019-05-06T04:01:05.977Z,83.96
2019-05-06T04:03:47.155Z,83.92
2019-05-06T04:06:05.222Z,83.52
2019-05-06T04:08:34.518Z,83.38
2019-05-06T04:11:04.177Z,83.09
2019-05-06T04:13:35.520Z,83.28
2019-05-06T04:16:07.116Z,82.57
2019-05-06T04:18:40.258Z,82.24
2019-05-06T04:21:16.732Z,82.23
2019-05-06T04:23:53.362Z,81.74
2019-05-06T04:26:23.934Z,81.81
2019-05-06T04:28:53.515Z,81.74
2019-05-06T04:31:22.920Z,81.19
2019-05-06T04:34:08.683Z,81.48
2019-05-06T04:36:23.993Z,80.70
2019-05-06T04:38:53.997Z,80.31
2019-05-06T04:41:26.776Z,80.37
2019-05-06T04:43:54.346Z,80.13
2019-05-06T04:46:23.730Z,80.10
2019-05-06T04:48:53.855Z,80.20
2019-05-06T04:51:24.813Z,80.51
2019-05-06T04:53:53.920Z,80.37
2019-05-06T04:56:24.721Z,80.86
2019-05-06T04:58:54.123Z,80.53
2019-05-06T05:01:23.396Z,80.89
2019-05-06T05:03:53.968Z,81.17
2019-05-06T05:06:23.193Z,80.46
2019-05-06T05:08:53.369Z,80.88
2019-05-06T05:11:23.900Z,80.73
2019-05-06T05:14:02.630Z,80.50
2019-05-06T05:16:33.125Z,80.35
2019-05-06T05:19:03.799Z,80.60
2019-05-06T05:21:32.763Z,81.01
2019-05-06T05:24:02.132Z,80.86
2019-05-06T05:26:32.220Z,81.13
2019-05-06T05:29:02.835Z,80.77
2019-05-06T05:31:33.191Z,80.89
2019-05-06T05:34:02.349Z,80.89
2019-05-06T05:36:33.543Z,80.58
2019-05-06T05:39:03.305Z,80.64
2019-05-06T05:41:33.220Z,80.47
2019-05-06T05:44:12.323Z,80.87
2019-05-06T05:46:41.239Z,80.99
2019-05-06T05:49:18.410Z,81.04
2019-05-06T05:51:45.545Z,80.89
2019-05-06T05:54:14.437Z,80.83
2019-05-06T05:56:43.647Z,80.51
2019-05-06T05:59:13.397Z,80.58
2019-05-06T06:01:43.427Z,80.64
2019-05-06T06:04:15.796Z,80.65
2019-05-06T06:06:44.636Z,80.51
2019-05-06T06:09:13.400Z,80.51
2019-05-06T06:11:44.310Z,80.12
2019-05-06T06:14:33.244Z,80.04
2019-05-06T06:17:03.706Z,79.84
2019-05-06T06:19:42.883Z,78.82
2019-05-06T06:22:16.179Z,79.29
2019-05-06T06:24:45.090Z,78.22
2019-05-06T06:27:13.855Z,77.25
2019-05-06T06:29:45.174Z,77.06
2019-05-06T06:32:23.946Z,76.08
2019-05-06T06:35:14.203Z,75.66
2019-05-06T06:37:59.111Z,75.91
2019-05-06T06:40:28.006Z,76.27
2019-05-06T06:42:58.310Z,74.99
2019-05-06T06:45:27.082Z,74.47
2019-05-06T06:47:55.921Z,74.83
2019-05-06T06:50:24.802Z,74.31
2019-05-06T06:52:53.857Z,74.56
2019-05-06T06:55:22.682Z,74.46
2019-05-06T06:57:57.686Z,72.21
2019-05-06T07:00:37.935Z,71.49
2019-05-06T07:03:08.440Z,72.02
2019-05-06T07:05:42.215Z,70.89
2019-05-06T07:08:12.547Z,71.11
2019-05-06T07:10:44.139Z,69.75
2019-05-06T07:13:26.988Z,70.47
2019-05-06T07:15:57.158Z,69.87
2019-05-06T07:18:25.916Z,69.22
2019-05-06T07:21:14.929Z,68.82
2019-05-06T07:23:45.839Z,66.14
2019-05-06T07:26:16.445Z,65.86
2019-05-06T07:28:45.206Z,65.31
2019-05-06T07:31:21.767Z,65.12
2019-05-06T07:33:44.560Z,63.58
2019-05-06T07:36:13.297Z,62.43
2019-05-06T07:38:44.090Z,61.47
2019-05-06T07:41:20.163Z,60.41
2019-05-06T07:43:56.472Z,60.80
2019-05-06T07:46:35.531Z,61.27
2019-05-06T07:49:04.439Z,60.32
2019-05-06T07:51:33.385Z,56.72
2019-05-06T07:54:02.836Z,55.36
2019-05-06T07:56:32.275Z,56.76
2019-05-06T07:59:09.950Z,54.95
2019-05-06T08:01:40.088Z,54.38
2019-05-06T08:04:09.089Z,52.94
2019-05-06T08:06:37.821Z,52.21
2019-05-06T08:09:08.968Z,52.64
2019-05-06T08:11:38.224Z,53.44
2019-05-06T08:14:07.695Z,51.98
2019-05-06T08:16:44.487Z,51.01
2019-05-06T08:19:13.312Z,51.33
2019-05-06T08:21:43.619Z,51.20
2019-05-06T08:24:12.392Z,51.33
2019-05-06T08:26:42.833Z,50.37
2019-05-06T08:29:12.572Z,50.12
2019-05-06T08:31:43.068Z,47.14
2019-05-06T08:34:12.309Z,47.87
2019-05-06T08:36:42.898Z,45.08
2019-05-06T08:39:13.054Z,44.85
2019-05-06T08:41:42.346Z,46.38
2019-05-06T08:44:12.767Z,46.25
2019-05-06T08:46:43.313Z,47.74
2019-05-06T08:49:12.371Z,48.29
2019-05-06T08:51:42.843Z,49.75
2019-05-06T08:54:22.709Z,46.57
2019-05-06T08:56:52.349Z,45.05
2019-05-06T08:59:21.233Z,45.12
2019-05-06T09:01:53.417Z,46.43
2019-05-06T09:04:22.776Z,47.39
2019-05-06T09:06:53.379Z,46.95
2019-05-06T09:09:22.594Z,47.41
2019-05-06T09:11:53.520Z,47.08
2019-05-06T09:14:23.289Z,46.84
2019-05-06T09:16:53.851Z,43.81
2019-05-06T09:19:23.476Z,43.89
2019-05-06T09:21:53.329Z,42.39
2019-05-06T09:24:23.071Z,42.78
2019-05-06T09:27:05.990Z,41.53
2019-05-06T09:29:36.306Z,43.07
2019-05-06T09:32:09.738Z,45.74
2019-05-06T09:34:49.187Z,46.62
2019-05-06T09:37:18.761Z,44.47
2019-05-06T09:39:47.809Z,43.87
2019-05-06T09:42:17.087Z,43.80
2019-05-06T09:44:50.215Z,45.02
2019-05-06T09:47:19.512Z,43.79
2019-05-06T09:49:49.151Z,44.17
2019-05-06T09:52:17.894Z,44.18
2019-05-06T09:54:48.253Z,41.45
2019-05-06T09:57:18.735Z,42.71
2019-05-06T09:59:47.623Z,42.53
2019-05-06T10:02:16.361Z,42.81
2019-05-06T10:04:45.179Z,46.29
2019-05-06T10:07:14.058Z,42.99
2019-05-06T10:09:43.585Z,43.21
2019-05-06T10:12:12.882Z,42.85
2019-05-06T10:14:43.401Z,40.45
2019-05-06T10:17:13.182Z,37.01
2019-05-06T10:19:42.969Z,37.01
2019-05-06T10:22:12.834Z,37.66
2019-05-06T10:24:43.097Z,38.93
2019-05-06T10:27:12.422Z,38.90
2019-05-06T10:29:43.351Z,38.55
2019-05-06T10:32:13.756Z,41.75
2019-05-06T10:34:43.515Z,38.73
2019-05-06T10:37:25.688Z,39.40
2019-05-06T10:40:06.376Z,37.38
2019-05-06T10:42:46.915Z,38.73
2019-05-06T10:45:18.703Z,38.73
2019-05-06T10:47:47.450Z,40.70
2019-05-06T10:50:16.188Z,39.58
2019-05-06T10:53:02.859Z,40.90
2019-05-06T10:55:32.477Z,42.19
2019-05-06T10:58:02.624Z,40.79
2019-05-06T11:00:33.273Z,39.93
2019-05-06T11:03:18.797Z,41.70
2019-05-06T11:05:47.765Z,43.17
2019-05-06T11:08:16.502Z,44.70
2019-05-06T11:10:45.806Z,45.39
2019-05-06T11:13:14.801Z,44.47
2019-05-06T11:15:43.652Z,43.82
2019-05-06T11:18:13.562Z,41.67
2019-05-06T11:20:43.744Z,42.24
2019-05-06T11:23:14.193Z,46.97
2019-05-06T11:25:44.908Z,45.99
2019-05-06T11:28:34.901Z,47.55
2019-05-06T11:31:09.366Z,46.97
2019-05-06T11:33:44.504Z,47.38
2019-05-06T11:36:15.611Z,45.44
2019-05-06T11:38:48.362Z,43.66
2019-05-06T11:41:15.906Z,43.34
2019-05-06T11:43:44.668Z,43.22
2019-05-06T11:46:13.993Z,44.82
2019-05-06T11:48:43.275Z,44.99
2019-05-06T11:51:15.092Z,43.18
2019-05-06T11:53:43.898Z,43.73
2019-05-06T11:56:13.280Z,45.07
2019-05-06T11:58:57.034Z,46.03
2019-05-06T12:01:27.871Z,47.71
2019-05-06T12:03:56.660Z,46.50
2019-05-06T12:06:26.104Z,48.21
2019-05-06T12:08:55.816Z,46.89
2019-05-06T12:11:24.677Z,47.17
2019-05-06T12:13:53.537Z,46.43
2019-05-06T12:16:26.017Z,45.78
2019-05-06T12:18:53.074Z,45.64
2019-05-06T12:21:23.193Z,46.99
2019-05-06T12:23:53.800Z,49.37
2019-05-06T12:26:23.409Z,49.91
2019-05-06T12:28:57.523Z,51.16
2019-05-06T12:31:26.481Z,53.42
2019-05-06T12:33:55.307Z,53.31
2019-05-06T12:36:24.201Z,51.51
2019-05-06T12:39:16.225Z,53.62
2019-05-06T12:41:44.407Z,55.08
2019-05-06T12:44:13.704Z,53.04
2019-05-06T12:46:49.771Z,52.40
2019-05-06T12:49:18.800Z,50.42
2019-05-06T12:51:47.739Z,50.14
2019-05-06T12:54:17.675Z,49.10
2019-05-06T12:56:47.826Z,46.89
2019-05-06T12:59:16.666Z,41.99
2019-05-06T13:01:46.079Z,39.81
2019-05-06T13:04:15.003Z,39.85
2019-05-06T13:06:46.124Z,38.40
2019-05-06T13:09:14.447Z,38.85
2019-05-06T13:11:43.327Z,38.11
2019-05-06T13:14:12.837Z,38.85
2019-05-06T13:16:42.717Z,41.27
2019-05-06T13:19:12.664Z,42.80
2019-05-06T13:21:42.208Z,42.80
2019-05-06T13:24:12.095Z,40.90
2019-05-06T13:26:43.099Z,42.25
2019-05-06T13:29:13.990Z,45.36
2019-05-06T13:31:43.720Z,46.54
2019-05-06T13:34:17.409Z,47.59
2019-05-06T13:36:46.572Z,47.92
2019-05-06T13:39:15.852Z,48.69
2019-05-06T13:41:44.731Z,48.87
2019-05-06T13:44:14.933Z,47.98
2019-05-06T13:46:45.427Z,48.16
2019-05-06T13:49:22.720Z,49.76
2019-05-06T13:52:03.390Z,47.71
2019-05-06T13:54:29.802Z,48.47
2019-05-06T13:56:58.604Z,47.52
2019-05-06T13:59:30.242Z,47.52
2019-05-06T14:01:59.565Z,48.85
2019-05-06T14:04:28.417Z,49.34
2019-05-06T14:06:57.306Z,49.44
2019-05-06T14:09:32.555Z,50.57
2019-05-06T14:11:56.651Z,51.39
2019-05-06T14:14:25.395Z,51.67
2019-05-06T14:16:54.161Z,52.25
2019-05-06T14:19:23.327Z,52.31
2019-05-06T14:21:52.450Z,52.84
2019-05-06T14:24:22.322Z,53.34
2019-05-06T14:26:58.561Z,54.13
2019-05-06T14:29:49.280Z,55.01
2019-05-06T14:32:18.088Z,57.63
2019-05-06T14:34:46.902Z,59.32
2019-05-06T14:37:15.668Z,60.16
2019-05-06T14:39:59.209Z,60.59
2019-05-06T14:42:25.470Z,59.92
2019-05-06T14:44:54.277Z,60.62
2019-05-06T14:47:29.969Z,60.82
2019-05-06T14:50:00.247Z,60.99
2019-05-06T14:52:29.136Z,60.03
2019-05-06T14:54:59.496Z,59.81
2019-05-06T14:57:32.110Z,60.12
2019-05-06T15:00:01.318Z,60.40
2019-05-06T15:02:33.738Z,60.14
2019-05-06T15:05:03.058Z,59.54
2019-05-06T15:07:33.069Z,59.71
2019-05-06T15:10:19.005Z,59.50
2019-05-06T15:12:34.194Z,59.90
2019-05-06T15:15:04.335Z,59.61
2019-05-06T15:17:36.754Z,60.04
2019-05-06T15:20:06.256Z,60.44
2019-05-06T15:22:39.022Z,60.23
2019-05-06T15:25:08.312Z,59.07
2019-05-06T15:27:42.494Z,59.21
2019-05-06T15:30:18.056Z,59.70
2019-05-06T15:32:46.854Z,60.79
2019-05-06T15:35:17.240Z,62.06
2019-05-06T15:37:47.724Z,60.90
2019-05-06T15:40:30.163Z,61.41
2019-05-06T15:42:47.128Z,60.40
2019-05-06T15:45:16.146Z,61.16
2019-05-06T15:47:45.418Z,62.57
2019-05-06T15:50:14.955Z,61.94
2019-05-06T15:52:43.883Z,62.29
2019-05-06T15:55:12.830Z,62.36
2019-05-06T15:57:43.441Z,62.43
2019-05-06T16:00:17.099Z,63.96
2019-05-06T16:02:47.176Z,65.24
2019-05-06T16:05:20.846Z,66.39
2019-05-06T16:07:52.850Z,67.17
2019-05-06T16:10:22.570Z,67.25
2019-05-06T16:12:53.471Z,68.38
2019-05-06T16:15:25.243Z,68.63
2019-05-06T16:17:57.783Z,69.34
2019-05-06T16:20:26.712Z,69.87
2019-05-06T16:22:57.161Z,70.61
2019-05-06T16:25:26.005Z,71.16
2019-05-06T16:27:56.781Z,71.68
2019-05-06T16:30:25.642Z,71.46
2019-05-06T16:32:56.911Z,71.74
2019-05-06T16:35:26.025Z,71.86
2019-05-06T16:37:54.829Z,72.13
2019-05-06T16:40:23.738Z,72.49
2019-05-06T16:42:54.630Z,71.76
2019-05-06T16:45:23.721Z,72.20
2019-05-06T16:47:53.022Z,73.04
2019-05-06T16:50:22.709Z,72.68
2019-05-06T16:52:52.621Z,72.63
2019-05-06T16:55:24.279Z,72.95
2019-05-06T16:57:55.032Z,72.30
2019-05-06T17:00:25.398Z,72.97
2019-05-06T17:02:57.772Z,72.68
2019-05-06T17:05:37.152Z,72.36
2019-05-06T17:08:06.146Z,72.36
2019-05-06T17:10:35.069Z,73.35
2019-05-06T17:13:04.259Z,73.32
2019-05-06T17:15:33.426Z,72.65
2019-05-06T17:18:03.126Z,71.60
2019-05-06T17:20:33.011Z,70.87
2019-05-06T17:23:02.836Z,70.75
2019-05-06T17:25:33.459Z,70.77
2019-05-06T17:28:04.365Z,70.35
2019-05-06T17:30:51.640Z,69.56
2019-05-06T17:33:37.459Z,69.20
2019-05-06T17:36:07.815Z,67.74
2019-05-06T17:38:46.892Z,67.94
2019-05-06T17:41:15.668Z,68.45
2019-05-06T17:43:44.564Z,67.98
2019-05-06T17:46:15.016Z,68.31
2019-05-06T17:48:48.316Z,69.01
2019-05-06T17:51:18.960Z,69.81
2019-05-06T17:53:52.088Z,70.04
2019-05-06T17:56:22.196Z,69.53
2019-05-06T17:58:52.948Z,69.75
2019-05-06T18:01:32.668Z,70.70
2019-05-06T18:04:02.302Z,70.75
2019-05-06T18:06:32.992Z,71.23
2019-05-06T18:09:02.551Z,70.93
2019-05-06T18:11:33.194Z,70.56
2019-05-06T18:14:04.087Z,72.17
2019-05-06T18:16:33.490Z,72.32
2019-05-06T18:19:03.261Z,72.92
2019-05-06T18:21:32.418Z,72.51
2019-05-06T18:24:02.976Z,72.66
2019-05-06T18:26:33.664Z,72.20
2019-05-06T18:29:02.735Z,71.72
2019-05-06T18:31:33.448Z,72.05
2019-05-06T18:34:03.258Z,72.22
2019-05-06T18:36:32.652Z,72.90
2019-05-06T18:39:03.274Z,73.59
2019-05-06T18:41:38.343Z,73.25
2019-05-06T18:44:07.196Z,73.94
2019-05-06T18:46:36.143Z,73.08
2019-05-06T18:49:05.381Z,73.90
2019-05-06T18:51:34.139Z,73.63
2019-05-06T18:54:03.178Z,73.77
2019-05-06T18:56:32.485Z,72.60
2019-05-06T18:59:02.827Z,73.80
2019-05-06T19:01:32.790Z,74.11
2019-05-06T19:04:12.898Z,75.09
2019-05-06T19:06:42.255Z,74.98
2019-05-06T19:09:24.617Z,75.05
2019-05-06T19:11:54.479Z,74.30
2019-05-06T19:14:23.474Z,77.02
2019-05-06T19:16:55.013Z,77.70
2019-05-06T19:19:23.351Z,78.49
2019-05-06T19:21:52.547Z,78.69
2019-05-06T19:24:22.659Z,79.68
2019-05-06T19:26:52.767Z,80.07
2019-05-06T19:29:23.171Z,80.51
2019-05-06T19:31:52.316Z,81.63
2019-05-06T19:34:23.639Z,81.01
2019-05-06T19:36:53.031Z,81.69
2019-05-06T19:39:23.278Z,81.66
2019-05-06T19:41:52.113Z,81.64
2019-05-06T19:44:22.104Z,82.44
2019-05-06T19:46:53.298Z,83.23
2019-05-06T19:49:23.952Z,83.20
2019-05-06T19:51:52.808Z,83.52
2019-05-06T19:54:22.485Z,83.18
2019-05-06T19:56:52.661Z,83.65
2019-05-06T19:59:21.757Z,83.50
2019-05-06T20:01:52.421Z,84.00
2019-05-06T20:04:22.749Z,83.52
2019-05-06T20:07:02.598Z,84.33
2019-05-06T20:09:49.278Z,84.45
2019-05-06T20:12:37.480Z,85.26
2019-05-06T20:15:26.974Z,85.95
2019-05-06T20:17:55.825Z,86.51
2019-05-06T20:20:25.757Z,86.25
2019-05-06T20:22:55.935Z,87.39
2019-05-06T20:25:26.644Z,87.46
2019-05-06T20:27:56.119Z,87.81
2019-05-06T20:30:26.337Z,88.43
2019-05-06T20:32:55.635Z,88.83
2019-05-06T20:35:24.976Z,88.92
2019-05-06T20:37:55.911Z,88.85
2019-05-06T20:40:24.856Z,88.77
2019-05-06T20:42:54.713Z,87.70
2019-05-06T20:45:24.752Z,87.70
2019-05-06T20:47:53.587Z,87.12
2019-05-06T20:50:23.479Z,87.26
2019-05-06T20:52:52.388Z,86.92
2019-05-06T20:55:22.889Z,87.07
2019-05-06T20:57:53.177Z,86.81
2019-05-06T21:00:22.508Z,86.52
2019-05-06T21:02:53.398Z,86.79
2019-05-06T21:05:22.797Z,87.41
2019-05-06T21:07:52.553Z,86.74
2019-05-06T21:10:22.035Z,87.11
2019-05-06T21:12:53.031Z,86.76
2019-05-06T21:15:22.956Z,86.77
2019-05-06T21:17:51.896Z,87.31
2019-05-06T21:20:20.790Z,87.74
2019-05-06T21:22:49.606Z,87.22
2019-05-06T21:25:18.532Z,87.24
2019-05-06T21:27:47.261Z,87.82
2019-05-06T21:30:16.431Z,87.92
2019-05-06T21:32:45.345Z,87.83
2019-05-06T21:35:14.775Z,87.85
2019-05-06T21:37:43.581Z,87.77
2019-05-06T21:40:12.544Z,87.22
2019-05-06T21:42:43.104Z,87.22
2019-05-06T21:45:12.920Z,87.13
2019-05-06T21:47:44.335Z,87.56
2019-05-06T21:50:12.544Z,87.39
2019-05-06T21:52:43.100Z,87.72
2019-05-06T21:55:13.308Z,88.00
2019-05-06T21:57:42.452Z,88.24
2019-05-06T22:00:16.854Z,87.93
2019-05-06T22:02:44.200Z,87.43
2019-05-06T22:05:13.743Z,87.35
2019-05-06T22:07:43.495Z,87.66
2019-05-06T22:10:12.915Z,87.71
2019-05-06T22:12:43.347Z,87.56
2019-05-06T22:15:12.611Z,87.80
2019-05-06T22:17:42.922Z,87.93
2019-05-06T22:20:11.917Z,87.66
2019-05-06T22:22:42.689Z,87.54
2019-05-06T22:25:12.484Z,87.66
2019-05-06T22:27:42.452Z,88.21
2019-05-06T22:30:12.239Z,88.34
2019-05-06T22:32:47.064Z,88.27
2019-05-06T22:35:17.580Z,88.54
2019-05-06T22:37:46.460Z,88.50
2019-05-06T22:40:15.300Z,88.50
2019-05-06T22:42:44.061Z,88.58
2019-05-06T22:45:13.110Z,88.97
2019-05-06T22:47:42.232Z,88.92
2019-05-06T22:50:13.117Z,88.75
2019-05-06T22:52:42.338Z,88.93
2019-05-06T22:55:13.048Z,89.40
2019-05-06T22:57:42.320Z,89.66
2019-05-06T23:00:15.158Z,90.18
2019-05-06T23:02:48.774Z,90.43
2019-05-06T23:05:17.524Z,90.48
2019-05-06T23:07:46.363Z,90.30
2019-05-06T23:10:15.245Z,90.77
2019-05-06T23:12:44.012Z,91.04
2019-05-06T23:15:12.851Z,91.44
2019-05-06T23:17:42.070Z,91.70
2019-05-06T23:20:11.272Z,91.93
2019-05-06T23:22:42.148Z,92.04
2019-05-06T23:25:12.550Z,92.42
2019-05-06T23:27:43.845Z,92.71
2019-05-06T23:30:12.788Z,92.77
2019-05-06T23:32:42.217Z,92.67
2019-05-06T23:35:12.842Z,92.34
2019-05-06T23:38:17.535Z,92.33
2019-05-06T23:41:22.117Z,92.43
2019-05-06T23:44:26.622Z,92.49
2019-05-06T23:47:31.163Z,92.76
2019-05-06T23:50:35.516Z,92.92
2019-05-06T23:53:40.238Z,92.85
2019-05-06T23:56:44.619Z,92.53
2019-05-06T23:59:15.570Z,92.89
